Time;durP1;ratioP1;P1;durP2;ratioP2;P2;SDS_P1;SDS_P2;PMS_P1;PMS_P2;Temp;Humidity;BMP_temperature;BMP_pressure;BME280_temperature;BME280_humidity;BME280_pressure;Samples;Min_cycle;Max_cycle;Signal;HPM_P1;HPM_P2
2022/07/10 00:00:21;;;;;;;4.97;0.55;;;13.60;99.90;;;;;;7353415;32;20167;-62
2022/07/10 00:04:23;;;;;;;4.03;0.80;;;13.60;99.90;;;;;;7360454;32;20123;-62
2022/07/10 00:08:25;;;;;;;10.88;0.95;;;13.50;99.90;;;;;;7359818;32;20127;-62
2022/07/10 00:12:26;;;;;;;4.95;0.90;;;13.30;99.90;;;;;;7359306;32;20765;-61
2022/07/10 00:16:28;;;;;;;2.00;0.85;;;13.20;99.90;;;;;;7360466;32;20516;-62
2022/07/10 00:20:30;;;;;;;5.68;1.00;;;13.20;99.90;;;;;;7358677;32;20125;-61
2022/07/10 00:24:32;;;;;;;4.90;0.98;;;13.20;99.90;;;;;;7360149;32;20733;-61
2022/07/10 00:28:34;;;;;;;5.85;0.90;;;13.10;99.90;;;;;;7358923;32;20103;-61
2022/07/10 00:32:37;;;;;;;6.22;0.88;;;13.20;99.90;;;;;;7359520;32;20119;-61
2022/07/10 00:36:39;;;;;;;4.47;0.80;;;13.10;99.90;;;;;;7359408;32;20198;-62
2022/07/10 00:40:40;;;;;;;3.40;0.80;;;13.10;99.90;;;;;;7358101;32;20123;-61
2022/07/10 00:44:43;;;;;;;3.45;0.80;;;13.00;99.90;;;;;;7358932;32;20225;-61
2022/07/10 00:48:45;;;;;;;4.32;0.80;;;13.00;99.90;;;;;;7357822;32;20099;-62
2022/07/10 00:52:46;;;;;;;9.20;1.20;;;13.00;99.90;;;;;;7357912;32;20126;-62
2022/07/10 00:56:48;;;;;;;6.20;1.02;;;13.10;99.90;;;;;;7341590;32;20156;-62
2022/07/10 01:00:50;;;;;;;9.48;0.75;;;13.30;99.90;;;;;;7357566;32;20172;-61
2022/07/10 01:04:52;;;;;;;3.30;0.73;;;13.40;99.90;;;;;;7358126;32;20127;-63
2022/07/10 01:08:54;;;;;;;3.15;0.77;;;13.40;99.90;;;;;;7357342;32;20188;-61
2022/07/10 01:12:55;;;;;;;3.05;1.05;;;13.40;99.90;;;;;;7357826;32;20107;-61
2022/07/10 01:17:01;;;;;;;5.45;0.80;;;13.50;99.90;;;;;;7358696;32;20148;-62
2022/07/10 01:21:03;;;;;;;5.90;1.00;;;13.60;99.90;;;;;;7357180;32;20599;-61
2022/07/10 01:25:05;;;;;;;3.20;0.55;;;13.60;99.90;;;;;;7357571;32;20549;-64
2022/07/10 01:29:08;;;;;;;5.20;1.40;;;13.70;99.90;;;;;;7356597;32;20103;-61
2022/07/10 01:33:10;;;;;;;5.55;0.68;;;13.70;99.90;;;;;;7357781;32;20260;-62
2022/07/10 01:37:12;;;;;;;5.55;0.88;;;13.70;99.90;;;;;;7357453;32;20121;-62
2022/07/10 01:41:14;;;;;;;4.93;1.00;;;13.70;99.90;;;;;;7357062;32;20174;-62
2022/07/10 01:45:17;;;;;;;7.65;0.95;;;13.70;99.90;;;;;;7357760;32;20187;-61
2022/07/10 01:49:19;;;;;;;2.95;0.77;;;13.60;99.90;;;;;;7356402;32;20119;-62
2022/07/10 01:53:21;;;;;;;4.57;0.70;;;13.60;99.90;;;;;;7353349;32;20507;-61
2022/07/10 01:57:22;;;;;;;4.47;1.00;;;13.50;99.90;;;;;;7338854;32;20560;-61
2022/07/10 02:01:24;;;;;;;4.45;0.85;;;13.60;99.90;;;;;;7331639;32;20798;-61
2022/07/10 02:05:26;;;;;;;7.65;0.80;;;13.40;99.90;;;;;;7337273;32;20118;-61
2022/07/10 02:09:28;;;;;;;7.78;0.90;;;13.40;99.90;;;;;;7355862;32;20118;-62
2022/07/10 02:13:29;;;;;;;3.53;0.98;;;13.30;99.90;;;;;;7357781;32;20193;-61
2022/07/10 02:17:31;;;;;;;4.45;0.70;;;13.20;99.90;;;;;;7357197;32;20569;-61
2022/07/10 02:21:33;;;;;;;6.25;0.65;;;13.10;99.90;;;;;;7357711;32;20163;-61
2022/07/10 02:25:34;;;;;;;6.10;0.93;;;13.10;99.90;;;;;;7357360;32;20179;-61
2022/07/10 02:29:37;;;;;;;6.12;1.00;;;13.00;99.90;;;;;;7357018;32;20194;-61
2022/07/10 02:33:39;;;;;;;6.20;0.98;;;12.90;99.90;;;;;;7357880;32;20726;-62
2022/07/10 02:37:41;;;;;;;5.60;1.00;;;12.70;99.90;;;;;;7356272;32;20480;-61
2022/07/10 02:41:42;;;;;;;2.97;0.95;;;12.60;99.90;;;;;;7357034;32;20581;-61
2022/07/10 02:45:44;;;;;;;8.60;1.08;;;12.50;99.90;;;;;;7356907;32;20187;-61
2022/07/10 02:49:48;;;;;;;4.45;0.80;;;12.40;99.90;;;;;;7330494;32;20187;-61
2022/07/10 02:53:49;;;;;;;4.15;0.80;;;12.30;99.90;;;;;;7331926;32;20198;-61
2022/07/10 02:57:51;;;;;;;4.57;1.17;;;12.20;99.90;;;;;;7333559;32;20216;-61
2022/07/10 03:01:53;;;;;;;5.55;1.33;;;12.10;99.90;;;;;;7336281;32;20104;-61
2022/07/10 03:05:54;;;;;;;5.47;0.90;;;12.10;99.90;;;;;;7341646;32;20174;-61
2022/07/10 03:09:56;;;;;;;6.12;1.05;;;12.00;99.90;;;;;;7361135;32;20181;-61
2022/07/10 03:13:58;;;;;;;7.53;1.20;;;11.90;99.90;;;;;;7361401;32;20339;-62
2022/07/10 03:18:00;;;;;;;2.78;1.10;;;11.90;99.90;;;;;;7360710;32;20257;-61
2022/07/10 03:22:02;;;;;;;3.85;1.20;;;11.90;99.90;;;;;;7361512;32;20500;-61
2022/07/10 03:26:03;;;;;;;6.80;1.25;;;12.00;99.90;;;;;;7361255;32;20186;-61
2022/07/10 03:30:06;;;;;;;4.00;0.88;;;12.00;99.90;;;;;;7360734;32;20141;-61
2022/07/10 03:34:08;;;;;;;5.35;1.30;;;12.00;99.90;;;;;;7361349;32;20588;-61
2022/07/10 03:38:09;;;;;;;4.85;1.10;;;12.00;99.90;;;;;;7359877;32;20321;-62
2022/07/10 03:42:11;;;;;;;5.00;1.20;;;12.00;99.90;;;;;;7360652;32;20104;-61
2022/07/10 03:46:13;;;;;;;8.05;1.37;;;11.90;99.90;;;;;;7360448;32;20182;-61
2022/07/10 03:50:15;;;;;;;6.78;1.50;;;11.80;99.90;;;;;;7360252;32;20459;-61
2022/07/10 03:54:17;;;;;;;4.47;1.10;;;11.80;99.90;;;;;;7351418;32;20115;-61
2022/07/10 03:58:19;;;;;;;5.65;1.33;;;11.70;99.90;;;;;;7336495;32;20153;-62
2022/07/10 04:02:20;;;;;;;6.53;1.27;;;11.60;99.90;;;;;;7334947;32;20204;-61
2022/07/10 04:06:22;;;;;;;4.40;1.23;;;11.60;99.90;;;;;;7342859;32;20137;-61
2022/07/10 04:10:25;;;;;;;4.12;1.20;;;11.60;99.90;;;;;;7358995;32;20129;-61
2022/07/10 04:14:27;;;;;;;3.72;1.23;;;11.60;99.90;;;;;;7359441;32;20510;-61
2022/07/10 04:18:29;;;;;;;4.22;0.98;;;11.50;99.90;;;;;;7356798;32;20160;-62
2022/07/10 04:22:31;;;;;;;2.62;0.90;;;11.50;99.90;;;;;;7359818;32;20182;-61
2022/07/10 04:26:33;;;;;;;5.55;1.37;;;11.50;99.90;;;;;;7360194;32;20799;-61
2022/07/10 04:30:34;;;;;;;3.85;1.20;;;11.50;99.90;;;;;;7359257;32;20156;-61
2022/07/10 04:34:36;;;;;;;4.28;1.20;;;11.50;99.90;;;;;;7359390;32;20762;-61
2022/07/10 04:38:38;;;;;;;6.22;1.10;;;11.50;99.90;;;;;;7358844;32;20103;-61
2022/07/10 04:42:40;;;;;;;5.18;1.40;;;11.70;99.90;;;;;;7359629;32;20285;-62
2022/07/10 04:46:42;;;;;;;5.78;1.20;;;11.90;99.90;;;;;;7358862;32;20179;-61
2022/07/10 04:50:44;;;;;;;2.97;1.00;;;12.20;99.90;;;;;;7358406;32;20126;-61
2022/07/10 04:54:45;;;;;;;10.50;1.62;;;12.50;99.90;;;;;;7346768;32;20183;-61
2022/07/10 04:58:48;;;;;;;8.00;1.45;;;13.00;99.90;;;;;;7333929;32;20126;-61
2022/07/10 05:02:53;;;;;;;7.68;1.60;;;13.40;99.90;;;;;;7334131;32;20121;-61
2022/07/10 05:06:55;;;;;;;5.87;1.35;;;14.10;99.90;;;;;;7343563;32;20356;-61
2022/07/10 05:10:57;;;;;;;6.03;1.30;;;14.70;99.90;;;;;;7347281;32;20103;-61
2022/07/10 05:14:59;;;;;;;7.07;1.10;;;15.20;99.90;;;;;;7358265;32;20168;-62
2022/07/10 05:19:01;;;;;;;7.03;1.52;;;15.80;99.90;;;;;;7357792;32;20122;-61
2022/07/10 05:23:03;;;;;;;5.37;1.17;;;16.30;99.90;;;;;;7357908;32;20169;-61
2022/07/10 05:27:05;;;;;;;6.45;1.85;;;16.70;99.90;;;;;;7357894;32;20500;-61
2022/07/10 05:31:07;;;;;;;7.47;1.70;;;17.50;99.90;;;;;;7358309;32;20115;-61
2022/07/10 05:35:09;;;;;;;4.78;1.33;;;18.00;99.90;;;;;;7358591;32;20123;-62
2022/07/10 05:39:11;;;;;;;9.38;1.45;;;17.50;99.90;;;;;;7357389;32;20280;-61
2022/07/10 05:43:12;;;;;;;9.93;1.50;;;17.20;99.90;;;;;;7358420;32;20171;-61
2022/07/10 05:47:14;;;;;;;9.57;1.80;;;16.80;99.90;;;;;;7358350;32;20623;-62
2022/07/10 05:51:16;;;;;;;5.90;1.27;;;16.30;99.90;;;;;;7357431;32;20119;-62
2022/07/10 05:55:38;;;;;;;6.93;1.80;;;15.90;99.90;;;;;;7356728;32;20182;-61
2022/07/10 05:59:39;;;;;;;4.97;1.23;;;15.80;99.90;;;;;;7332065;32;20118;-62
2022/07/10 06:03:41;;;;;;;9.05;1.30;;;16.00;99.90;;;;;;7333104;32;20115;-62
2022/07/10 06:07:43;;;;;;;5.87;1.40;;;16.60;99.90;;;;;;7350205;32;20353;-61
2022/07/10 06:11:46;;;;;;;5.78;1.40;;;16.40;99.90;;;;;;7357615;32;20495;-61
2022/07/10 06:15:47;;;;;;;7.78;1.25;;;16.10;99.90;;;;;;7357532;32;20194;-61
2022/07/10 06:19:49;;;;;;;6.45;1.17;;;16.00;99.90;;;;;;7357626;32;20145;-61
2022/07/10 06:23:51;;;;;;;9.38;1.50;;;15.80;99.90;;;;;;7358306;32;20111;-62
2022/07/10 06:27:53;;;;;;;7.35;1.52;;;15.50;99.90;;;;;;7356512;32;20214;-61
2022/07/10 06:31:55;;;;;;;6.12;1.62;;;15.50;99.90;;;;;;7358302;32;20195;-65
2022/07/10 06:35:56;;;;;;;5.20;1.20;;;15.40;99.90;;;;;;7361358;32;20119;-65
2022/07/10 06:39:58;;;;;;;3.70;0.90;;;15.40;99.90;;;;;;7362646;32;20303;-65
2022/07/10 06:44:00;;;;;;;6.40;1.67;;;15.30;99.90;;;;;;7361989;32;20106;-66
2022/07/10 06:48:02;;;;;;;4.62;1.40;;;15.20;99.90;;;;;;7361067;32;20108;-65
2022/07/10 06:52:04;;;;;;;6.85;1.35;;;15.10;99.90;;;;;;7362696;32;20281;-65
2022/07/10 06:56:14;;;;;;;4.85;1.20;;;15.10;99.90;;;;;;7344323;32;20168;-64
2022/07/10 07:00:16;;;;;;;6.95;1.50;;;15.10;99.90;;;;;;7360083;32;20180;-64
2022/07/10 07:04:18;;;;;;;7.07;1.37;;;15.10;99.90;;;;;;7362477;32;20550;-65
2022/07/10 07:08:20;;;;;;;9.45;1.62;;;15.00;99.90;;;;;;7361292;32;20476;-65
2022/07/10 07:12:22;;;;;;;4.93;1.10;;;15.10;99.90;;;;;;7362193;32;20194;-64
2022/07/10 07:16:37;;;;;;;5.75;1.20;;;15.10;99.90;;;;;;7361200;32;20107;-65
2022/07/10 07:24:59;;;;;;;9.05;1.48;;;15.40;99.90;;;;;;7362051;32;20183;-66
2022/07/10 07:29:01;;;;;;;6.85;1.40;;;15.20;99.90;;;;;;7360536;32;20182;-66
2022/07/10 07:33:02;;;;;;;4.85;1.12;;;15.30;99.90;;;;;;7361150;32;20130;-65
2022/07/10 07:37:04;;;;;;;7.75;1.70;;;15.40;99.90;;;;;;7361003;32;20104;-65
2022/07/10 07:41:06;;;;;;;7.82;2.30;;;15.30;99.90;;;;;;7360822;32;20162;-65
2022/07/10 07:45:09;;;;;;;6.72;1.98;;;15.30;99.90;;;;;;7360761;32;20156;-65
2022/07/10 07:49:10;;;;;;;6.20;1.85;;;15.10;99.90;;;;;;7358021;32;20271;-65
2022/07/10 07:53:12;;;;;;;7.62;2.60;;;15.00;99.90;;;;;;7357894;32;20164;-65
2022/07/10 07:57:14;;;;;;;7.30;2.45;;;15.10;99.90;;;;;;7337751;32;20233;-66
2022/07/10 08:01:16;;;;;;;11.65;2.65;;;15.00;99.90;;;;;;7334992;32;20156;-65
2022/07/10 08:05:18;;;;;;;7.28;2.33;;;15.10;99.90;;;;;;7335555;32;20166;-66
2022/07/10 08:09:20;;;;;;;7.55;2.50;;;15.20;99.90;;;;;;7360040;32;20155;-65
2022/07/10 08:13:22;;;;;;;6.03;2.35;;;15.30;99.90;;;;;;7360897;32;20214;-65
2022/07/10 08:17:25;;;;;;;6.95;2.55;;;15.20;99.90;;;;;;7360284;32;20096;-65
2022/07/10 08:21:27;;;;;;;13.75;3.33;;;15.40;99.90;;;;;;7359385;32;20107;-65
2022/07/10 08:25:32;;;;;;;9.73;3.75;;;15.20;99.90;;;;;;7359900;32;20182;-65
2022/07/10 08:29:34;;;;;;;9.68;3.75;;;15.10;99.90;;;;;;7359552;32;20103;-65
2022/07/10 08:33:36;;;;;;;10.77;3.87;;;15.10;99.90;;;;;;7359971;32;20118;-65
2022/07/10 08:37:39;;;;;;;6.30;3.83;;;15.20;99.90;;;;;;7358722;32;20110;-65
2022/07/10 08:41:42;;;;;;;10.90;4.50;;;15.30;99.90;;;;;;7359575;32;20186;-66
2022/07/10 08:45:48;;;;;;;11.05;4.28;;;15.30;99.90;;;;;;7359884;32;20203;-65
2022/07/10 08:49:50;;;;;;;10.95;4.97;;;15.10;99.90;;;;;;7358914;32;20116;-65
2022/07/10 08:53:55;;;;;;;9.18;4.12;;;15.10;99.90;;;;;;7351636;32;20167;-66
2022/07/10 08:57:59;;;;;;;10.27;4.60;;;15.30;99.90;;;;;;7333870;32;20186;-65
2022/07/10 09:02:01;;;;;;;10.50;4.20;;;15.40;99.90;;;;;;7334407;32;20187;-66
2022/07/10 09:06:04;;;;;;;6.70;3.10;;;15.50;99.90;;;;;;7356719;32;20184;-65
2022/07/10 09:10:09;;;;;;;7.32;3.30;;;16.00;99.90;;;;;;7358283;32;20123;-65
2022/07/10 09:14:13;;;;;;;13.40;3.33;;;16.30;99.90;;;;;;7359092;32;20290;-65
2022/07/10 09:18:35;;;;;;;6.97;3.30;;;16.60;99.90;;;;;;7358849;32;20103;-65
2022/07/10 09:22:37;;;;;;;5.75;2.50;;;17.00;99.90;;;;;;7358703;32;20455;-65
2022/07/10 09:26:42;;;;;;;5.50;2.50;;;16.80;99.90;;;;;;7357664;32;20152;-65
2022/07/10 09:30:45;;;;;;;9.65;2.35;;;16.70;99.90;;;;;;7357523;32;20107;-65
2022/07/10 09:34:48;;;;;;;8.70;2.50;;;16.80;99.90;;;;;;7358562;32;20473;-65
2022/07/10 09:38:51;;;;;;;4.07;2.25;;;16.80;99.90;;;;;;7357604;32;20155;-65
2022/07/10 09:42:54;;;;;;;12.90;3.53;;;16.70;99.90;;;;;;7358138;32;20474;-65
2022/07/10 09:46:55;;;;;;;5.90;2.47;;;16.50;99.90;;;;;;7358186;32;20117;-65
2022/07/10 09:50:57;;;;;;;6.90;2.65;;;16.20;99.90;;;;;;7357448;32;20152;-65
2022/07/10 09:55:02;;;;;;;8.25;2.60;;;16.20;99.90;;;;;;7357327;32;20295;-66
2022/07/10 09:59:09;;;;;;;11.73;3.17;;;16.10;99.90;;;;;;7334262;32;20129;-66
2022/07/10 10:03:14;;;;;;;18.55;8.30;;;15.90;99.90;;;;;;7331578;32;20218;-66
2022/07/10 10:07:18;;;;;;;6.30;2.80;;;15.80;99.90;;;;;;7348862;32;20464;-65
2022/07/10 10:11:21;;;;;;;5.35;2.83;;;15.90;99.90;;;;;;7357047;32;20128;-65
2022/07/10 10:15:24;;;;;;;5.82;2.53;;;16.20;99.90;;;;;;7358113;32;20540;-66
2022/07/10 10:23:47;;;;;;;6.53;3.00;;;16.70;99.90;;;;;;7358925;32;20152;-65
2022/07/10 10:27:49;;;;;;;6.80;3.15;;;16.80;99.90;;;;;;7355743;32;20604;-65
2022/07/10 10:31:52;;;;;;;7.72;3.35;;;16.60;99.90;;;;;;7357020;32;20210;-66
2022/07/10 10:35:54;;;;;;;7.03;3.25;;;16.40;99.90;;;;;;7357807;32;20190;-65
2022/07/10 10:40:04;;;;;;;6.32;3.10;;;16.10;99.90;;;;;;7357930;32;20128;-65
2022/07/10 10:44:13;;;;;;;6.68;4.20;;;16.20;99.90;;;;;;7357897;32;20168;-65
2022/07/10 10:48:17;;;;;;;5.55;4.20;;;16.00;99.90;;;;;;7357219;32;20482;-65
2022/07/10 10:53:01;;;;;;;5.70;4.12;;;16.10;99.90;;;;;;7357943;32;20182;-66
2022/07/10 10:57:16;;;;;;;4.72;4.28;;;15.90;99.90;;;;;;7346687;32;20123;-66
2022/07/10 11:01:20;;;;;;;5.50;3.80;;;15.90;99.90;;;;;;7357198;32;20121;-65
2022/07/10 11:05:24;;;;;;;6.25;4.75;;;16.20;99.90;;;;;;7357159;32;20151;-66
2022/07/10 11:09:31;;;;;;;5.18;3.67;;;16.70;99.90;;;;;;7357104;32;20531;-65
2022/07/10 11:13:33;;;;;;;4.95;2.95;;;17.10;99.90;;;;;;7357609;32;20579;-66
2022/07/10 11:17:36;;;;;;;3.65;1.60;;;17.10;99.90;;;;;;7356843;32;20116;-66
2022/07/10 11:21:47;;;;;;;2.65;1.55;;;17.30;99.90;;;;;;7359317;32;20133;-66
2022/07/10 11:26:07;;;;;;;2.72;1.30;;;17.40;99.90;;;;;;7362550;32;20099;-66
2022/07/10 11:30:09;;;;;;;3.47;1.40;;;17.10;99.90;;;;;;7361819;32;20103;-66
2022/07/10 11:34:11;;;;;;;2.40;1.15;;;16.70;99.90;;;;;;7362113;32;20186;-66
2022/07/10 11:38:22;;;;;;;2.97;1.42;;;16.50;99.90;;;;;;7360705;32;20174;-65
2022/07/10 11:42:24;;;;;;;3.70;1.20;;;16.30;99.90;;;;;;7362653;32;20155;-66
2022/07/10 11:46:30;;;;;;;5.47;1.73;;;16.30;99.90;;;;;;7361385;32;20560;-66
2022/07/10 11:50:37;;;;;;;3.37;1.50;;;16.30;99.90;;;;;;7360302;32;20190;-66
2022/07/10 11:54:42;;;;;;;2.17;1.27;;;16.80;99.90;;;;;;7349646;32;20144;-66
2022/07/10 11:58:44;;;;;;;4.95;1.60;;;17.30;99.90;;;;;;7338061;32;20129;-66
2022/07/10 12:02:45;;;;;;;2.78;1.25;;;17.80;99.90;;;;;;7336398;32;20103;-67
2022/07/10 12:06:48;;;;;;;5.03;1.52;;;18.10;99.90;;;;;;7345459;32;20107;-67
2022/07/10 12:10:51;;;;;;;4.32;1.37;;;18.00;99.90;;;;;;7360252;32;20164;-66
2022/07/10 12:14:53;;;;;;;3.90;1.50;;;17.90;99.90;;;;;;7361915;32;20115;-67
2022/07/10 12:18:55;;;;;;;3.03;1.33;;;17.60;99.90;;;;;;7359911;32;20174;-64
2022/07/10 12:22:57;;;;;;;4.57;1.40;;;17.30;99.90;;;;;;7361173;32;20174;-65
2022/07/10 12:26:59;;;;;;;3.87;1.50;;;17.10;99.90;;;;;;7360859;32;20148;-65
2022/07/10 12:31:01;;;;;;;4.00;1.55;;;16.70;99.90;;;;;;7360951;32;20214;-65
2022/07/10 12:35:03;;;;;;;6.15;2.45;;;16.70;99.90;;;;;;7360565;32;20533;-65
2022/07/10 12:39:05;;;;;;;9.20;3.72;;;16.50;99.90;;;;;;7359695;32;20605;-65
2022/07/10 12:43:07;;;;;;;6.93;3.45;;;16.30;99.90;;;;;;7360569;32;20231;-65
2022/07/10 12:47:11;;;;;;;11.10;4.00;;;16.10;99.90;;;;;;7360807;32;20099;-65
2022/07/10 12:51:28;;;;;;;10.48;4.30;;;16.00;99.90;;;;;;7359540;32;20460;-65
2022/07/10 12:55:50;;;;;;;5.82;3.62;;;16.00;99.90;;;;;;7342731;32;20511;-65
2022/07/10 12:59:51;;;;;;;9.02;4.03;;;16.10;99.90;;;;;;7333970;32;20121;-66
2022/07/10 13:04:01;;;;;;;9.38;3.15;;;16.50;99.90;;;;;;7334850;32;20131;-65
2022/07/10 13:08:21;;;;;;;7.95;3.20;;;17.10;99.90;;;;;;7351779;32;20111;-65
2022/07/10 13:12:23;;;;;;;6.68;2.85;;;18.00;99.90;;;;;;7359555;32;20130;-65
2022/07/10 13:16:25;;;;;;;8.15;2.75;;;18.40;99.90;;;;;;7359411;32;20183;-65
2022/07/10 13:20:27;;;;;;;6.80;2.97;;;18.40;99.90;;;;;;7359376;32;20116;-65
2022/07/10 13:24:28;;;;;;;6.97;2.50;;;18.00;99.90;;;;;;7359938;32;20211;-66
2022/07/10 13:28:38;;;;;;;10.10;3.90;;;17.80;99.90;;;;;;7358328;32;20517;-66
2022/07/10 13:32:47;;;;;;;10.60;3.22;;;17.70;99.90;;;;;;7359772;32;20092;-65
2022/07/10 13:36:50;;;;;;;6.00;2.83;;;18.20;99.90;;;;;;7359762;32;20190;-66
2022/07/10 13:40:51;;;;;;;5.50;2.62;;;19.00;99.90;;;;;;7358936;32;20611;-66
2022/07/10 13:44:55;;;;;;;8.88;2.65;;;19.80;99.90;;;;;;7356650;32;20107;-65
2022/07/10 13:48:56;;;;;;;7.97;2.30;;;20.00;99.90;;;;;;7358786;32;20216;-65
2022/07/10 13:52:58;;;;;;;4.60;2.00;;;19.70;99.90;;;;;;7357850;32;20151;-66
2022/07/10 13:57:01;;;;;;;7.28;4.45;;;19.90;99.90;;;;;;7342664;32;20127;-65
2022/07/10 14:01:03;;;;;;;5.72;1.35;;;20.00;99.90;;;;;;7358425;32;20159;-65
2022/07/10 14:05:07;;;;;;;5.03;1.40;;;19.90;99.90;;;;;;7358453;32;20186;-65
2022/07/10 14:09:09;;;;;;;6.30;1.20;;;19.70;99.90;;;;;;7358538;32;20115;-66
2022/07/10 14:13:11;;;;;;;5.25;1.10;;;19.30;99.90;;;;;;7358557;32;20594;-66
2022/07/10 14:17:13;;;;;;;4.75;1.20;;;19.00;99.90;;;;;;7358386;32;20665;-65
2022/07/10 14:21:15;;;;;;;3.17;0.90;;;18.90;99.90;;;;;;7357608;32;20164;-65
2022/07/10 14:25:18;;;;;;;5.57;1.00;;;18.70;99.90;;;;;;7358634;32;20123;-65
2022/07/10 14:29:20;;;;;;;2.37;0.93;;;18.60;99.90;;;;;;7356806;32;20194;-64
2022/07/10 14:33:22;;;;;;;4.50;1.08;;;18.60;99.90;;;;;;7357941;32;20204;-64
2022/07/10 14:37:24;;;;;;;2.60;0.90;;;18.60;99.90;;;;;;7357811;32;20174;-64
2022/07/10 14:41:26;;;;;;;2.20;1.08;;;18.40;99.90;;;;;;7358227;32;20091;-65
2022/07/10 14:45:28;;;;;;;3.22;1.00;;;18.20;99.90;;;;;;7357993;32;20134;-65
2022/07/10 14:49:49;;;;;;;2.37;0.88;;;18.20;99.90;;;;;;7357890;32;20187;-65
2022/07/10 14:53:51;;;;;;;1.90;0.88;;;18.30;99.90;;;;;;7357733;32;20169;-65
2022/07/10 14:57:53;;;;;;;3.05;1.08;;;18.50;99.90;;;;;;7347520;32;20368;-65
2022/07/10 15:01:55;;;;;;;6.25;1.15;;;18.70;99.90;;;;;;7337617;32;20527;-65
2022/07/10 15:05:57;;;;;;;3.65;1.02;;;18.80;99.90;;;;;;7357717;32;20107;-65
2022/07/10 15:09:58;;;;;;;4.12;1.20;;;18.70;99.90;;;;;;7361903;32;20103;-65
2022/07/10 15:14:01;;;;;;;4.55;1.20;;;18.60;99.90;;;;;;7362481;32;20359;-65
2022/07/10 15:18:02;;;;;;;2.97;1.10;;;18.60;99.90;;;;;;7362064;32;20206;-65
2022/07/10 15:22:04;;;;;;;4.43;0.93;;;18.80;99.90;;;;;;7362433;32;20156;-65
2022/07/10 15:26:06;;;;;;;6.50;3.08;;;19.00;99.90;;;;;;7362373;32;20111;-65
2022/07/10 15:30:11;;;;;;;1.58;0.77;;;19.30;99.90;;;;;;7361914;32;20119;-65
2022/07/10 15:34:14;;;;;;;2.25;0.82;;;19.40;99.90;;;;;;7362027;32;20635;-65
2022/07/10 15:38:15;;;;;;;2.28;1.10;;;19.40;99.90;;;;;;7360856;32;20127;-65
2022/07/10 15:42:17;;;;;;;2.95;0.90;;;19.30;99.90;;;;;;7362208;32;20205;-65
2022/07/10 15:46:19;;;;;;;3.03;1.02;;;19.30;99.90;;;;;;7362038;32;20149;-65
2022/07/10 15:50:21;;;;;;;3.05;0.90;;;19.30;99.90;;;;;;7360883;32;20186;-65
2022/07/10 15:54:23;;;;;;;2.22;0.90;;;19.10;99.90;;;;;;7361045;32;20190;-65
2022/07/10 15:58:25;;;;;;;2.03;0.88;;;19.10;99.90;;;;;;7342159;32;20123;-65
2022/07/10 16:02:26;;;;;;;3.70;1.20;;;19.10;99.90;;;;;;7336553;32;20100;-65
2022/07/10 16:06:28;;;;;;;2.78;1.20;;;19.20;99.90;;;;;;7357463;32;20582;-66
2022/07/10 16:10:30;;;;;;;2.70;1.15;;;19.20;99.90;;;;;;7360499;32;20129;-66
2022/07/10 16:14:33;;;;;;;4.37;1.10;;;19.40;99.90;;;;;;7361589;32;20186;-65
2022/07/10 16:18:35;;;;;;;2.25;1.00;;;19.30;99.90;;;;;;7360116;32;20119;-65
2022/07/10 16:22:37;;;;;;;3.45;1.00;;;19.20;99.90;;;;;;7361294;32;20115;-65
2022/07/10 16:26:38;;;;;;;2.08;0.90;;;19.10;99.90;;;;;;7360439;32;20122;-65
2022/07/10 16:30:40;;;;;;;3.92;1.20;;;19.00;99.90;;;;;;7360121;32;20138;-65
2022/07/10 16:34:42;;;;;;;4.25;1.90;;;18.80;99.90;;;;;;7360593;32;20145;-65
2022/07/10 16:38:44;;;;;;;4.57;2.75;;;18.80;99.90;;;;;;7359882;32;20469;-64
2022/07/10 16:42:47;;;;;;;2.78;1.00;;;18.70;99.90;;;;;;7358391;32;20180;-64
2022/07/10 16:46:49;;;;;;;2.08;1.08;;;18.70;99.90;;;;;;7359717;32;20092;-64
2022/07/10 16:50:51;;;;;;;4.68;2.08;;;18.60;99.90;;;;;;7360077;32;20172;-65
2022/07/10 16:54:54;;;;;;;6.15;1.23;;;18.50;99.90;;;;;;7357981;32;20231;-65
2022/07/10 16:58:55;;;;;;;1.83;0.80;;;18.50;99.90;;;;;;7337444;32;20237;-65
2022/07/10 17:02:57;;;;;;;1.98;0.90;;;18.50;99.90;;;;;;7334252;32;20095;-64
2022/07/10 17:06:59;;;;;;;6.40;1.20;;;18.40;99.90;;;;;;7356339;32;20130;-65
2022/07/10 17:11:01;;;;;;;4.30;1.10;;;18.30;99.90;;;;;;7359037;32;20179;-65
2022/07/10 17:15:03;;;;;;;3.12;1.20;;;18.20;99.90;;;;;;7359286;32;20216;-65
2022/07/10 17:19:04;;;;;;;3.45;1.20;;;18.30;99.90;;;;;;7358674;32;20542;-65
2022/07/10 17:23:06;;;;;;;9.77;6.05;;;18.20;99.90;;;;;;7359295;32;20155;-65
2022/07/10 17:27:08;;;;;;;5.18;1.48;;;18.20;99.90;;;;;;7359028;32;20185;-65
2022/07/10 17:31:17;;;;;;;24.33;21.58;;;18.20;99.90;;;;;;7358011;32;20095;-65
2022/07/10 17:35:18;;;;;;;4.45;2.12;;;18.20;99.90;;;;;;7358207;32;20129;-65
2022/07/10 17:39:21;;;;;;;3.55;1.10;;;18.20;99.90;;;;;;7358126;32;20159;-65
2022/07/10 17:43:23;;;;;;;4.20;1.25;;;18.10;99.90;;;;;;7358625;32;20179;-65
2022/07/10 17:47:25;;;;;;;2.62;1.17;;;18.10;99.90;;;;;;7358360;32;20226;-65
2022/07/10 17:51:28;;;;;;;3.62;1.55;;;18.10;99.90;;;;;;7358309;32;20850;-65
2022/07/10 17:55:29;;;;;;;3.65;1.25;;;18.10;99.90;;;;;;7353280;32;20241;-65
2022/07/10 17:59:31;;;;;;;2.37;1.20;;;18.10;99.90;;;;;;7332808;32;20182;-65
2022/07/10 18:03:33;;;;;;;4.25;1.60;;;18.10;99.90;;;;;;7333199;32;20197;-65
2022/07/10 18:07:35;;;;;;;2.33;1.15;;;18.10;99.90;;;;;;7357771;32;20124;-64
2022/07/10 18:11:37;;;;;;;4.30;1.33;;;18.20;99.90;;;;;;7357451;32;20508;-64
2022/07/10 18:15:38;;;;;;;3.75;1.05;;;18.10;99.90;;;;;;7358141;32;20130;-65
2022/07/10 18:19:40;;;;;;;4.82;1.15;;;18.10;99.90;;;;;;7357239;32;20147;-65
2022/07/10 18:23:42;;;;;;;3.45;1.40;;;18.20;99.90;;;;;;7357659;32;20309;-65
2022/07/10 18:27:45;;;;;;;4.00;1.45;;;18.10;99.90;;;;;;7358204;32;20095;-64
2022/07/10 18:31:48;;;;;;;6.50;3.78;;;18.10;99.90;;;;;;7361000;32;20118;-64
2022/07/10 18:35:49;;;;;;;3.85;1.67;;;18.10;99.90;;;;;;7363367;32;20213;-64
2022/07/10 18:39:51;;;;;;;4.28;1.30;;;18.10;99.90;;;;;;7362389;32;20103;-65
2022/07/10 18:43:53;;;;;;;2.55;1.10;;;18.00;99.90;;;;;;7362879;32;20330;-65
2022/07/10 18:47:55;;;;;;;2.03;1.10;;;18.00;99.90;;;;;;7362441;32;20890;-66
2022/07/10 18:51:56;;;;;;;4.35;1.30;;;18.00;99.90;;;;;;7362033;32;20492;-65
2022/07/10 18:55:58;;;;;;;3.62;1.30;;;17.90;99.90;;;;;;7344886;32;20767;-65
2022/07/10 19:00:00;;;;;;;1.55;1.20;;;17.90;99.90;;;;;;7362112;32;20540;-65
2022/07/10 19:04:02;;;;;;;2.00;1.20;;;17.90;99.90;;;;;;7362388;32;20193;-66
2022/07/10 19:08:04;;;;;;;9.52;5.95;;;17.90;99.90;;;;;;7361661;32;20547;-65
2022/07/10 19:12:06;;;;;;;6.28;4.37;;;17.90;99.90;;;;;;7360930;32;20123;-66
2022/07/10 19:16:08;;;;;;;3.55;1.55;;;17.90;99.90;;;;;;7362853;32;20119;-65
2022/07/10 19:20:15;;;;;;;3.25;1.52;;;17.80;99.90;;;;;;7361271;32;20104;-66
2022/07/10 19:24:21;;;;;;;7.70;5.37;;;17.80;99.90;;;;;;7361825;32;20476;-65
2022/07/10 19:28:23;;;;;;;5.85;2.90;;;17.70;99.90;;;;;;7361699;32;20210;-66
2022/07/10 19:32:27;;;;;;;8.43;1.92;;;17.60;99.90;;;;;;7362380;32;20564;-65
2022/07/10 19:36:31;;;;;;;3.42;1.60;;;17.60;99.90;;;;;;7362487;32;20100;-66
2022/07/10 19:40:33;;;;;;;4.60;1.70;;;17.50;99.90;;;;;;7361169;32;20095;-66
2022/07/10 19:44:34;;;;;;;9.38;2.00;;;17.40;99.90;;;;;;7359974;32;20636;-67
2022/07/10 19:48:38;;;;;;;3.40;1.48;;;17.40;99.90;;;;;;7361387;32;20099;-67
2022/07/10 19:52:40;;;;;;;4.93;1.73;;;17.30;99.90;;;;;;7361851;32;20142;-65
2022/07/10 19:56:42;;;;;;;4.78;1.60;;;17.20;99.90;;;;;;7353977;32;20168;-66
2022/07/10 20:00:43;;;;;;;3.65;1.58;;;17.20;99.90;;;;;;7334938;32;20132;-62
2022/07/10 20:04:45;;;;;;;3.30;1.70;;;17.10;99.90;;;;;;7361549;32;20156;-62
2022/07/10 20:08:48;;;;;;;3.67;1.52;;;17.10;99.90;;;;;;7360496;32;20107;-63
2022/07/10 20:12:50;;;;;;;4.22;1.85;;;17.00;99.90;;;;;;7360345;32;20121;-63
2022/07/10 20:16:53;;;;;;;6.47;2.28;;;17.00;99.90;;;;;;7361276;32;20171;-63
2022/07/10 20:20:57;;;;;;;1.37;1.20;;;16.90;99.90;;;;;;7360046;32;20140;-65
2022/07/10 20:24:59;;;;;;;6.15;1.50;;;16.90;99.90;;;;;;7361207;32;20152;-62
2022/07/10 20:29:00;;;;;;;3.72;1.40;;;16.90;99.90;;;;;;7359782;32;20104;-62
2022/07/10 20:33:02;;;;;;;5.97;1.62;;;16.90;99.90;;;;;;7360755;32;20107;-62
2022/07/10 20:41:25;;;;;;;3.08;1.70;;;16.90;99.90;;;;;;7359899;32;20103;-62
2022/07/10 20:45:27;;;;;;;3.22;1.67;;;16.90;99.90;;;;;;7360090;32;20253;-62
2022/07/10 20:49:36;;;;;;;2.80;1.92;;;16.80;99.90;;;;;;7359540;32;20103;-62
2022/07/10 20:53:38;;;;;;;6.35;1.90;;;16.80;99.90;;;;;;7354253;32;20096;-63
2022/07/10 20:57:40;;;;;;;3.30;1.55;;;16.70;99.90;;;;;;7347334;32;20102;-63
2022/07/10 21:01:42;;;;;;;2.55;1.80;;;16.60;99.90;;;;;;7359045;32;20103;-62
2022/07/10 21:05:44;;;;;;;6.03;1.75;;;16.70;99.90;;;;;;7359628;32;20485;-62
2022/07/10 21:09:48;;;;;;;3.50;2.15;;;16.70;99.90;;;;;;7359591;32;20251;-63
2022/07/10 21:13:50;;;;;;;4.80;1.75;;;16.70;99.90;;;;;;7359436;32;20098;-61